Time;durP1;ratioP1;P1;durP2;ratioP2;P2;SDS_P1;SDS_P2;PMS_P1;PMS_P2;Temp;Humidity;BMP_temperature;BMP_pressure;BME280_temperature;BME280_humidity;BME280_pressure;Samples;Min_cycle;Max_cycle;Signal;HPM_P1;HPM_P2
2022/04/30 00:00:18;;;;;;;12.70;9.13;;;9.00;1.00;;;;;;5115987;28;20179;-73
2022/04/30 00:02:43;;;;;;;13.67;9.07;;;8.90;1.00;;;;;;5114778;28;20179;-72
2022/04/30 00:05:10;;;;;;;13.07;8.70;;;8.90;1.00;;;;;;5116268;28;20532;-71
2022/04/30 00:07:36;;;;;;;16.43;8.83;;;8.90;1.00;;;;;;5116088;28;20217;-71
2022/04/30 00:10:02;;;;;;;11.23;8.17;;;8.80;1.00;;;;;;5115645;28;20214;-71
2022/04/30 00:12:28;;;;;;;10.80;7.93;;;8.80;1.00;;;;;;5115642;28;20630;-71
2022/04/30 00:14:54;;;;;;;15.77;8.83;;;8.70;1.00;;;;;;5115616;28;20179;-71
2022/04/30 00:17:20;;;;;;;15.60;8.77;;;8.70;1.00;;;;;;5115539;28;20167;-72
2022/04/30 00:19:46;;;;;;;11.37;8.40;;;8.70;1.00;;;;;;5115894;28;20179;-72
2022/04/30 00:22:11;;;;;;;10.70;8.77;;;8.60;1.00;;;;;;5115832;28;20508;-71
2022/04/30 00:24:40;;;;;;;8.70;7.33;;;8.60;1.00;;;;;;5115552;28;20179;-73
2022/04/30 00:27:06;;;;;;;11.30;8.80;;;8.60;1.00;;;;;;5115678;28;20167;-72
2022/04/30 00:29:32;;;;;;;13.70;8.47;;;8.50;1.00;;;;;;5115467;28;20293;-71
2022/04/30 00:32:01;;;;;;;12.57;8.73;;;8.50;1.00;;;;;;5115258;28;20206;-71
2022/04/30 00:34:29;;;;;;;9.00;7.43;;;8.50;1.00;;;;;;5115535;28;20175;-71
2022/04/30 00:36:56;;;;;;;18.10;8.70;;;8.50;1.00;;;;;;5115616;28;20159;-71
2022/04/30 00:39:21;;;;;;;11.53;7.57;;;8.40;1.00;;;;;;5115014;28;20223;-72
2022/04/30 00:41:48;;;;;;;11.33;9.00;;;8.40;1.00;;;;;;5115250;28;20262;-72
2022/04/30 00:44:18;;;;;;;13.27;9.03;;;8.40;1.00;;;;;;5115210;28;20175;-70
2022/04/30 00:46:44;;;;;;;12.43;9.47;;;8.40;1.00;;;;;;5114723;28;20178;-71
2022/04/30 00:49:09;;;;;;;18.47;10.03;;;8.30;1.00;;;;;;5115205;28;20560;-72
2022/04/30 00:51:38;;;;;;;13.07;9.10;;;8.30;1.00;;;;;;5115420;28;20257;-71
2022/04/30 00:54:05;;;;;;;13.10;9.27;;;8.30;1.00;;;;;;5114982;28;20210;-71
2022/04/30 00:56:51;;;;;;;17.07;10.43;;;8.20;1.00;;;;;;5114830;28;20182;-71
2022/04/30 00:59:18;;;;;;;14.83;10.33;;;8.20;1.00;;;;;;5096424;28;20197;-71
2022/04/30 01:01:48;;;;;;;15.23;10.30;;;8.20;1.00;;;;;;5114556;28;20167;-71
2022/04/30 01:04:15;;;;;;;16.53;10.50;;;8.20;1.00;;;;;;5115102;28;20220;-71
2022/04/30 01:06:47;;;;;;;14.97;10.03;;;8.10;1.00;;;;;;5114813;28;20627;-71
2022/04/30 01:09:13;;;;;;;15.83;9.90;;;8.10;1.00;;;;;;5114653;28;20685;-72
2022/04/30 01:11:40;;;;;;;12.53;8.87;;;8.00;1.00;;;;;;5114726;28;20171;-72
2022/04/30 01:14:07;;;;;;;18.93;9.50;;;8.10;1.00;;;;;;5114408;28;20236;-72
2022/04/30 01:16:35;;;;;;;15.40;9.13;;;8.00;1.00;;;;;;5114457;28;20228;-71
2022/04/30 01:19:02;;;;;;;12.47;9.37;;;8.00;1.00;;;;;;5114488;28;20175;-70
2022/04/30 01:21:30;;;;;;;13.50;9.83;;;8.00;1.00;;;;;;5114684;28;20190;-71
2022/04/30 01:23:58;;;;;;;14.97;9.57;;;7.90;1.00;;;;;;5114436;28;20642;-71
2022/04/30 01:26:27;;;;;;;12.17;9.07;;;7.90;2.30;;;;;;5114518;28;20163;-70
2022/04/30 01:28:54;;;;;;;13.90;9.03;;;7.90;3.40;;;;;;5114195;28;20290;-71
2022/04/30 01:39:32;;;;;;;15.47;10.10;;;7.80;3.90;;;;;;5114572;28;20178;-71
2022/04/30 01:42:11;;;;;;;12.47;8.37;;;7.70;4.90;;;;;;5114196;28;20242;-70
2022/04/30 01:44:40;;;;;;;11.97;9.00;;;7.80;3.80;;;;;;5113958;28;20175;-71
2022/04/30 01:47:07;;;;;;;14.27;8.90;;;7.70;4.30;;;;;;5114173;28;20155;-71
2022/04/30 01:49:33;;;;;;;12.60;7.90;;;7.70;5.60;;;;;;5114128;28;20195;-71
2022/04/30 01:51:58;;;;;;;12.90;8.57;;;7.70;2.30;;;;;;5113836;28;20172;-72
2022/04/30 01:54:24;;;;;;;11.43;8.23;;;7.70;3.50;;;;;;5114053;28;20171;-71
2022/04/30 01:56:49;;;;;;;14.80;9.60;;;7.60;3.50;;;;;;5095457;28;20301;-71
2022/04/30 01:59:15;;;;;;;12.13;8.97;;;7.60;6.50;;;;;;5113847;28;20215;-71
2022/04/30 02:01:43;;;;;;;10.20;7.30;;;7.60;7.80;;;;;;5114108;28;20548;-71
2022/04/30 02:04:09;;;;;;;13.80;8.47;;;7.50;5.90;;;;;;5113856;28;20178;-70
2022/04/30 02:06:34;;;;;;;9.20;7.30;;;7.50;8.10;;;;;;5113721;28;20180;-71
2022/04/30 02:09:00;;;;;;;10.17;8.07;;;7.50;6.60;;;;;;5113675;28;20645;-71
2022/04/30 02:11:26;;;;;;;10.03;7.60;;;7.40;8.80;;;;;;5113730;28;20538;-70
2022/04/30 02:13:56;;;;;;;12.17;7.97;;;7.40;9.10;;;;;;5113558;28;20207;-71
2022/04/30 02:16:23;;;;;;;10.57;7.90;;;7.40;8.10;;;;;;5113636;28;20218;-70
2022/04/30 02:18:53;;;;;;;15.53;8.03;;;7.40;9.50;;;;;;5113655;28;20198;-71
2022/04/30 02:21:21;;;;;;;9.70;7.90;;;7.40;11.30;;;;;;5113191;28;20163;-71
2022/04/30 02:23:50;;;;;;;13.83;8.13;;;7.40;12.40;;;;;;5113432;28;20567;-70
2022/04/30 02:26:17;;;;;;;11.90;7.43;;;7.30;11.80;;;;;;5113226;28;20266;-70
2022/04/30 02:28:43;;;;;;;11.67;7.83;;;7.30;12.40;;;;;;5113149;28;20203;-71
2022/04/30 02:31:23;;;;;;;14.03;8.10;;;7.30;14.60;;;;;;5113633;28;20179;-70
2022/04/30 02:33:49;;;;;;;12.50;8.20;;;7.30;14.00;;;;;;5113434;28;20170;-70
2022/04/30 02:36:15;;;;;;;10.57;7.47;;;7.30;13.00;;;;;;5113359;28;20174;-72
2022/04/30 02:38:42;;;;;;;11.93;7.67;;;7.40;10.70;;;;;;5113593;28;20248;-71
2022/04/30 02:41:08;;;;;;;10.97;7.83;;;7.30;9.80;;;;;;5113505;28;20195;-70
2022/04/30 02:43:33;;;;;;;11.17;7.70;;;7.30;11.20;;;;;;5113110;28;20232;-70
2022/04/30 02:45:59;;;;;;;9.80;7.57;;;7.20;12.40;;;;;;5113330;28;20172;-70
2022/04/30 02:48:25;;;;;;;8.63;7.10;;;7.10;18.80;;;;;;5113228;28;20172;-71
2022/04/30 02:50:53;;;;;;;14.53;7.43;;;7.00;20.50;;;;;;5113214;28;20645;-71
2022/04/30 02:53:19;;;;;;;12.47;8.10;;;7.00;23.80;;;;;;5113386;28;20228;-69
2022/04/30 02:55:45;;;;;;;10.33;7.50;;;7.00;23.50;;;;;;5113156;28;20236;-70
2022/04/30 03:00:55;;;;;;;10.37;7.17;;;7.00;26.00;;;;;;5113286;28;20173;-70
2022/04/30 03:03:22;;;;;;;14.17;7.70;;;6.90;28.30;;;;;;5113339;28;20225;-69
2022/04/30 03:05:50;;;;;;;9.97;8.10;;;6.90;28.70;;;;;;5113256;28;20623;-70
2022/04/30 03:08:20;;;;;;;13.00;7.60;;;6.90;29.30;;;;;;5112772;28;20507;-71
2022/04/30 03:10:47;;;;;;;12.97;7.33;;;6.90;29.00;;;;;;5113214;28;20175;-71
2022/04/30 03:13:14;;;;;;;11.33;7.93;;;6.90;29.30;;;;;;5113337;28;20207;-70
2022/04/30 03:15:43;;;;;;;12.60;8.50;;;6.90;29.40;;;;;;5113022;28;20167;-71
2022/04/30 03:23:37;;;;;;;12.50;7.97;;;7.00;24.40;;;;;;5112999;28;20167;-71
2022/04/30 03:26:06;;;;;;;11.43;8.30;;;7.00;23.50;;;;;;5112711;28;20171;-71
2022/04/30 03:28:32;;;;;;;13.03;8.53;;;7.00;24.60;;;;;;5112758;28;20187;-71
2022/04/30 03:30:58;;;;;;;12.43;8.27;;;7.00;25.40;;;;;;5112635;28;20578;-69
2022/04/30 03:33:26;;;;;;;12.43;8.27;;;7.00;25.30;;;;;;5112698;28;20258;-70
2022/04/30 03:35:51;;;;;;;12.23;8.43;;;7.00;25.50;;;;;;5112891;28;20175;-70
2022/04/30 03:38:17;;;;;;;14.20;8.27;;;7.00;25.10;;;;;;5115637;28;20167;-69
2022/04/30 03:40:43;;;;;;;12.23;8.27;;;6.80;28.10;;;;;;5115948;28;20293;-70
2022/04/30 03:43:08;;;;;;;16.80;9.03;;;6.80;34.50;;;;;;5098298;28;20191;-70
2022/04/30 03:45:35;;;;;;;17.73;8.53;;;6.70;37.00;;;;;;5116270;28;20529;-70
2022/04/30 03:48:01;;;;;;;14.70;8.77;;;6.70;38.20;;;;;;5115887;28;20163;-70
2022/04/30 03:50:26;;;;;;;14.23;9.60;;;6.70;39.90;;;;;;5116264;28;20215;-70
2022/04/30 03:52:52;;;;;;;16.90;8.90;;;6.60;42.00;;;;;;5115964;28;20619;-71
2022/04/30 03:55:18;;;;;;;12.50;9.10;;;6.60;44.20;;;;;;5115439;28;20175;-70
2022/04/30 03:57:44;;;;;;;12.00;9.03;;;6.60;46.30;;;;;;5115666;28;20234;-70
2022/04/30 04:00:11;;;;;;;14.20;9.03;;;6.60;47.40;;;;;;5116043;28;20266;-71
2022/04/30 04:02:40;;;;;;;14.80;9.10;;;6.40;49.50;;;;;;5115900;28;20163;-70
2022/04/30 04:05:13;;;;;;;17.43;9.00;;;6.50;51.10;;;;;;5115727;28;20174;-71
2022/04/30 04:07:40;;;;;;;19.70;9.83;;;6.50;51.00;;;;;;5115356;28;20179;-70
2022/04/30 04:10:06;;;;;;;13.30;8.97;;;6.50;50.80;;;;;;5115479;28;20210;-70
2022/04/30 04:12:31;;;;;;;13.00;9.00;;;6.50;51.00;;;;;;5115647;28;20183;-70
2022/04/30 04:17:41;;;;;;;11.87;8.70;;;6.20;58.20;;;;;;5115673;28;20224;-70
2022/04/30 04:20:09;;;;;;;15.00;9.27;;;6.20;62.60;;;;;;5115564;28;20183;-70
2022/04/30 04:22:36;;;;;;;10.50;7.93;;;6.20;64.00;;;;;;5115515;28;20171;-71
2022/04/30 04:27:48;;;;;;;16.00;8.60;;;6.10;69.10;;;;;;5115758;28;20170;-71
2022/04/30 04:30:13;;;;;;;13.50;9.33;;;6.10;70.70;;;;;;5115218;28;20203;-70
2022/04/30 04:32:39;;;;;;;13.03;9.20;;;6.10;72.90;;;;;;5115241;28;20272;-71
2022/04/30 04:35:05;;;;;;;17.70;9.33;;;6.10;73.00;;;;;;5115130;28;20312;-71
2022/04/30 04:37:31;;;;;;;15.27;9.70;;;6.10;74.10;;;;;;5115493;28;20199;-70
2022/04/30 04:39:57;;;;;;;16.27;8.90;;;6.30;77.10;;;;;;5114659;28;20182;-70
2022/04/30 04:42:23;;;;;;;12.93;9.03;;;6.40;67.40;;;;;;5114549;28;20167;-70
2022/04/30 04:44:49;;;;;;;11.93;8.13;;;6.50;60.10;;;;;;5115134;28;20163;-70
2022/04/30 04:47:15;;;;;;;12.07;8.93;;;6.40;58.00;;;;;;5114118;28;20170;-71
2022/04/30 04:49:42;;;;;;;15.60;8.50;;;6.60;56.80;;;;;;5114832;28;20263;-70
2022/04/30 04:52:11;;;;;;;17.47;8.30;;;6.60;53.30;;;;;;5114929;28;20176;-70
2022/04/30 04:54:36;;;;;;;10.73;8.63;;;6.60;53.70;;;;;;5114273;28;20203;-71
2022/04/30 04:57:02;;;;;;;12.60;8.70;;;6.60;54.30;;;;;;5114090;28;20690;-71
2022/04/30 04:59:28;;;;;;;19.53;8.43;;;6.70;54.30;;;;;;5096256;28;20228;-71
2022/04/30 05:01:54;;;;;;;13.10;8.20;;;6.80;52.70;;;;;;5114455;28;20585;-71
2022/04/30 05:04:20;;;;;;;14.70;8.93;;;6.80;49.50;;;;;;5114558;28;20175;-70
2022/04/30 05:06:48;;;;;;;10.87;7.83;;;7.10;50.90;;;;;;5114655;28;20188;-71
2022/04/30 05:09:14;;;;;;;13.93;8.43;;;7.40;41.90;;;;;;5114344;28;20746;-71
2022/04/30 05:11:39;;;;;;;11.77;8.10;;;7.60;25.10;;;;;;5113849;28;20254;-71
2022/04/30 05:14:06;;;;;;;19.27;8.83;;;7.60;18.00;;;;;;5114108;28;20202;-71
2022/04/30 05:16:31;;;;;;;13.47;7.80;;;7.90;12.20;;;;;;5114479;28;20642;-71
2022/04/30 05:18:57;;;;;;;10.37;8.00;;;8.20;2.90;;;;;;5114610;28;20182;-71
2022/04/30 05:21:23;;;;;;;8.83;7.93;;;8.70;1.00;;;;;;5113749;28;20245;-71
2022/04/30 05:23:48;;;;;;;12.30;8.30;;;9.30;1.00;;;;;;5114481;28;20171;-71
2022/04/30 05:26:14;;;;;;;10.40;8.00;;;9.90;1.00;;;;;;5114055;28;20171;-71
2022/04/30 05:28:39;;;;;;;11.00;7.17;;;10.40;1.00;;;;;;5095486;28;20278;-71
2022/04/30 05:31:06;;;;;;;10.83;7.13;;;10.70;1.00;;;;;;5114009;28;20191;-71
2022/04/30 05:33:34;;;;;;;10.03;7.53;;;11.00;1.00;;;;;;5114016;28;20171;-70
2022/04/30 05:36:01;;;;;;;11.97;7.47;;;11.80;99.90;;;;;;5113965;28;20171;-71
2022/04/30 05:38:27;;;;;;;9.50;6.97;;;12.70;1.00;;;;;;5095943;28;20291;-71
2022/04/30 05:40:52;;;;;;;8.80;7.03;;;13.10;1.00;;;;;;5113710;28;20588;-71
2022/04/30 05:43:18;;;;;;;9.90;7.20;;;13.70;1.00;;;;;;5113240;28;20179;-71
2022/04/30 05:45:44;;;;;;;9.13;7.00;;;13.80;1.00;;;;;;5113519;28;20171;-71
2022/04/30 05:48:09;;;;;;;10.13;7.50;;;13.50;99.90;;;;;;5113674;28;20156;-72
2022/04/30 05:50:35;;;;;;;8.70;7.30;;;13.10;18.10;;;;;;5113018;28;20210;-72
2022/04/30 05:53:00;;;;;;;9.43;7.03;;;12.90;99.90;;;;;;5113656;28;20159;-71
2022/04/30 05:55:26;;;;;;;8.00;7.20;;;13.50;1.00;;;;;;5113299;28;20293;-71
2022/04/30 05:57:52;;;;;;;7.93;7.00;;;14.00;99.90;;;;;;5112360;28;20627;-72
2022/04/30 06:00:18;;;;;;;11.97;7.33;;;14.50;1.00;;;;;;5112322;28;20189;-72
2022/04/30 06:02:43;;;;;;;10.17;7.30;;;14.40;1.00;;;;;;5113707;28;20642;-72
2022/04/30 06:05:09;;;;;;;10.67;7.33;;;14.80;99.90;;;;;;5113026;28;20174;-73
2022/04/30 06:07:36;;;;;;;10.57;7.73;;;15.30;1.00;;;;;;5113438;28;20167;-72
2022/04/30 06:10:04;;;;;;;8.57;7.73;;;15.30;99.90;;;;;;5113215;28;20214;-73
2022/04/30 06:12:29;;;;;;;10.13;8.00;;;16.20;1.00;;;;;;5113074;28;20618;-73
2022/04/30 06:14:55;;;;;;;10.87;7.40;;;17.20;1.00;;;;;;5113810;28;20233;-73
2022/04/30 06:17:21;;;;;;;9.97;7.83;;;18.10;99.90;;;;;;5113115;28;20567;-73
2022/04/30 06:19:46;;;;;;;13.77;7.97;;;18.40;99.90;;;;;;5113032;28;20649;-73
2022/04/30 06:22:12;;;;;;;9.30;7.50;;;18.00;99.90;;;;;;5112793;28;20630;-73
2022/04/30 06:24:38;;;;;;;8.73;7.33;;;17.90;99.90;;;;;;5113361;28;20171;-74
2022/04/30 06:27:04;;;;;;;9.27;7.33;;;18.30;99.90;;;;;;5113313;28;20526;-75
2022/04/30 06:29:29;;;;;;;11.13;8.27;;;18.50;99.90;;;;;;5112891;28;20214;-75
2022/04/30 06:31:56;;;;;;;11.77;6.97;;;19.20;99.90;;;;;;5112875;28;20191;-77
2022/04/30 06:34:22;;;;;;;10.50;7.57;;;19.60;99.90;;;;;;5112692;28;20171;-76
2022/04/30 06:36:48;;;;;;;9.00;7.38;;;20.10;99.90;;;;;;5113167;28;20167;-76
2022/04/30 06:39:14;;;;;;;7.13;6.43;;;19.40;99.90;;;;;;5113332;28;20163;-76
2022/04/30 06:41:39;;;;;;;7.43;6.60;;;16.70;99.90;;;;;;5112655;28;20683;-76
2022/04/30 06:44:05;;;;;;;8.87;7.33;;;16.50;99.90;;;;;;5113111;28;20193;-75
2022/04/30 06:46:31;;;;;;;11.37;7.03;;;16.00;1.00;;;;;;5112862;28;20174;-76
2022/04/30 06:48:58;;;;;;;9.87;7.10;;;15.80;1.00;;;;;;5112916;28;20230;-76
2022/04/30 06:51:23;;;;;;;9.00;7.27;;;16.90;1.00;;;;;;5112862;28;20183;-77
2022/04/30 06:59:17;;;;;;;8.80;7.27;;;18.00;99.90;;;;;;5113222;28;20189;-78
2022/04/30 07:01:48;;;;;;;8.50;7.63;;;18.60;99.90;;;;;;5112903;28;20176;-77
2022/04/30 07:04:16;;;;;;;6.93;6.23;;;19.00;99.90;;;;;;5112900;28;20627;-78
2022/04/30 07:06:42;;;;;;;7.88;5.85;;;18.20;99.90;;;;;;5112678;28;20159;-77
2022/04/30 07:09:08;;;;;;;8.63;6.57;;;18.00;99.90;;;;;;5112966;28;20210;-76
2022/04/30 07:11:35;;;;;;;8.53;6.63;;;17.20;99.90;;;;;;5114718;28;20174;-76
2022/04/30 07:14:00;;;;;;;6.70;6.03;;;16.70;99.90;;;;;;5116765;28;20159;-76
2022/04/30 07:16:26;;;;;;;6.50;5.83;;;16.00;99.90;;;;;;5116463;28;20219;-76
2022/04/30 07:18:52;;;;;;;7.07;6.33;;;15.40;1.00;;;;;;5116499;28;20205;-76
2022/04/30 07:21:17;;;;;;;8.03;5.93;;;15.10;1.00;;;;;;5097588;28;20179;-76
2022/04/30 07:23:43;;;;;;;7.07;6.20;;;15.00;1.00;;;;;;5116787;28;20172;-76
2022/04/30 07:26:09;;;;;;;10.00;6.03;;;15.30;1.00;;;;;;5116674;28;20167;-76
2022/04/30 07:28:35;;;;;;;7.07;6.30;;;15.00;1.00;;;;;;5116347;28;20701;-76
2022/04/30 07:31:05;;;;;;;6.93;6.27;;;14.60;31.00;;;;;;5116140;28;20270;-76
2022/04/30 07:33:31;;;;;;;8.20;5.53;;;14.60;99.90;;;;;;5116221;28;20171;-76
2022/04/30 07:35:57;;;;;;;7.40;5.90;;;15.10;1.00;;;;;;5116061;28;20175;-75
2022/04/30 07:38:23;;;;;;;7.93;5.57;;;15.20;1.00;;;;;;5116381;28;20174;-76
2022/04/30 07:40:49;;;;;;;6.00;4.90;;;14.60;1.00;;;;;;5115144;28;20171;-75
2022/04/30 07:43:15;;;;;;;7.43;4.93;;;14.80;1.00;;;;;;5116092;28;20174;-76
2022/04/30 07:45:40;;;;;;;7.37;5.03;;;15.10;1.00;;;;;;5115874;28;20239;-75
2022/04/30 07:48:06;;;;;;;7.03;5.43;;;15.60;1.00;;;;;;5115849;28;20224;-75
2022/04/30 07:50:35;;;;;;;5.90;5.30;;;16.10;1.00;;;;;;5115071;28;20210;-76
2022/04/30 07:53:06;;;;;;;7.87;4.50;;;16.60;99.90;;;;;;5116051;28;20254;-75
2022/04/30 07:55:33;;;;;;;6.30;5.00;;;15.30;99.90;;;;;;5115253;28;20167;-74
2022/04/30 07:57:59;;;;;;;5.20;4.77;;;14.20;1.00;;;;;;5114793;28;20219;-75
2022/04/30 08:00:26;;;;;;;6.60;5.00;;;13.90;1.00;;;;;;5114847;28;20159;-73
2022/04/30 08:02:55;;;;;;;4.80;4.30;;;13.60;99.90;;;;;;5115448;28;20496;-73
2022/04/30 08:05:21;;;;;;;5.17;4.77;;;13.90;99.90;;;;;;5115393;28;20170;-74
2022/04/30 08:07:47;;;;;;;5.17;4.43;;;13.80;20.90;;;;;;5115201;28;20162;-73
2022/04/30 08:10:12;;;;;;;4.70;4.30;;;14.30;1.00;;;;;;5115510;28;20206;-74
2022/04/30 08:12:38;;;;;;;6.20;4.73;;;13.90;1.00;;;;;;5115172;28;20170;-73
2022/04/30 08:15:04;;;;;;;5.47;4.97;;;13.90;1.00;;;;;;5116003;28;20584;-74
2022/04/30 08:17:29;;;;;;;6.20;5.60;;;14.70;1.00;;;;;;5114684;28;20159;-75
2022/04/30 08:19:55;;;;;;;7.40;5.63;;;15.20;1.00;;;;;;5115229;28;20175;-74
2022/04/30 08:22:21;;;;;;;6.33;5.77;;;14.30;1.00;;;;;;5114532;28;20255;-73
2022/04/30 08:24:47;;;;;;;8.27;6.03;;;13.80;1.00;;;;;;5115088;28;20270;-74
2022/04/30 08:27:13;;;;;;;7.40;6.10;;;13.10;31.40;;;;;;5114671;28;20287;-72
2022/04/30 08:29:38;;;;;;;9.07;5.97;;;13.10;99.90;;;;;;5114584;28;20195;-72
2022/04/30 08:32:05;;;;;;;7.50;5.90;;;13.30;99.90;;;;;;5115014;28;20190;-74
2022/04/30 08:34:31;;;;;;;6.80;6.13;;;13.40;1.00;;;;;;5115158;28;20179;-72
2022/04/30 08:36:56;;;;;;;6.57;5.60;;;13.50;1.00;;;;;;5114944;28;20175;-73
2022/04/30 08:39:23;;;;;;;5.93;5.40;;;13.60;1.00;;;;;;5096327;28;20171;-73
2022/04/30 08:41:49;;;;;;;6.63;6.03;;;12.80;1.00;;;;;;5114698;28;20210;-72
2022/04/30 08:44:16;;;;;;;6.23;5.60;;;12.70;1.00;;;;;;5114652;28;20686;-71
2022/04/30 08:46:44;;;;;;;6.73;6.03;;;12.80;99.90;;;;;;5114229;28;20202;-71
2022/04/30 08:49:10;;;;;;;6.57;5.80;;;13.40;1.00;;;;;;5113896;28;20199;-71
2022/04/30 08:51:36;;;;;;;7.20;5.87;;;14.40;1.00;;;;;;5114421;28;20164;-71
2022/04/30 08:54:02;;;;;;;7.20;6.10;;;13.60;1.00;;;;;;5114428;28;20172;-70
2022/04/30 08:56:28;;;;;;;12.53;5.97;;;13.50;99.90;;;;;;5114125;28;20649;-71
2022/04/30 08:59:05;;;;;;;7.43;5.67;;;14.00;99.90;;;;;;5113442;28;20186;-71
2022/04/30 09:01:55;;;;;;;6.13;5.63;;;14.50;1.00;;;;;;5114557;28;20194;-71
2022/04/30 09:04:21;;;;;;;7.93;6.00;;;14.40;1.00;;;;;;5113437;28;20195;-71
2022/04/30 09:06:55;;;;;;;8.67;6.40;;;14.10;1.00;;;;;;5113773;28;20163;-72
2022/04/30 09:09:27;;;;;;;6.90;6.27;;;13.20;58.40;;;;;;5114378;28;20312;-71
2022/04/30 09:11:56;;;;;;;6.50;5.67;;;13.20;99.90;;;;;;5112981;28;20163;-71
2022/04/30 09:14:27;;;;;;;8.07;6.20;;;13.40;99.90;;;;;;5114248;28;20163;-72
2022/04/30 09:17:12;;;;;;;8.10;6.23;;;13.90;69.20;;;;;;5114324;28;20638;-73
2022/04/30 09:19:49;;;;;;;6.20;5.50;;;15.10;1.00;;;;;;5095706;28;20179;-74
2022/04/30 09:22:16;;;;;;;7.50;5.27;;;15.60;99.90;;;;;;5113211;28;20220;-73
2022/04/30 09:24:49;;;;;;;6.30;5.20;;;16.30;99.90;;;;;;5114198;28;20171;-74
2022/04/30 09:27:15;;;;;;;7.03;5.93;;;16.80;99.90;;;;;;5113674;28;20168;-76
2022/04/30 09:29:41;;;;;;;8.52;5.60;;;18.50;99.90;;;;;;5113589;28;20199;-74
2022/04/30 09:32:07;;;;;;;5.95;5.45;;;20.60;99.90;;;;;;5113059;28;20270;-76
2022/04/30 09:40:13;;;;;;;5.70;5.10;;;22.00;99.90;;;;;;5113834;28;20240;-76
2022/04/30 09:42:39;;;;;;;5.35;4.90;;;18.50;99.90;;;;;;5113316;28;20167;-76
2022/04/30 09:45:06;;;;;;;8.98;5.32;;;17.00;99.90;;;;;;5113485;28;20182;-77
2022/04/30 09:47:33;;;;;;;5.90;5.40;;;16.60;99.90;;;;;;5113658;28;20164;-77
2022/04/30 09:55:31;;;;;;;6.03;5.07;;;17.40;99.90;;;;;;5112820;28;20170;-78
2022/04/30 09:58:04;;;;;;;6.75;4.75;;;18.80;99.90;;;;;;5112183;28;20669;-77
2022/04/30 10:00:33;;;;;;;5.45;4.95;;;19.60;99.90;;;;;;5113166;28;20203;-77
2022/04/30 10:03:03;;;;;;;5.25;4.82;;;18.70;99.90;;;;;;5112894;28;20265;-77
2022/04/30 10:05:33;;;;;;;8.27;6.45;;;18.70;99.90;;;;;;5112981;28;20216;-77
2022/04/30 10:08:00;;;;;;;6.53;5.47;;;17.30;99.90;;;;;;5112822;28;20179;-77
2022/04/30 10:10:36;;;;;;;6.60;6.03;;;18.00;99.90;;;;;;5111708;28;20234;-76
2022/04/30 10:13:15;;;;;;;6.78;6.15;;;18.60;99.90;;;;;;5112991;28;20167;-77
2022/04/30 10:15:51;;;;;;;6.55;6.07;;;19.40;99.90;;;;;;5113403;28;20244;-76
2022/04/30 10:18:18;;;;;;;6.63;6.13;;;19.30;99.90;;;;;;5112676;28;20167;-76
2022/04/30 10:20:52;;;;;;;7.03;5.75;;;18.80;99.90;;;;;;5111801;28;20190;-76
2022/04/30 10:23:17;;;;;;;6.45;5.95;;;18.30;99.90;;;;;;5112698;28;20277;-76
2022/04/30 10:25:48;;;;;;;6.75;6.20;;;18.10;99.90;;;;;;5112729;28;20167;-77
2022/04/30 10:28:21;;;;;;;6.73;6.13;;;17.70;99.90;;;;;;5113522;28;20159;-75
2022/04/30 10:31:03;;;;;;;7.43;6.83;;;16.80;99.90;;;;;;5112945;28;20238;-77
2022/04/30 10:33:29;;;;;;;8.30;7.37;;;16.80;99.90;;;;;;5112736;28;20171;-75
2022/04/30 10:36:08;;;;;;;13.63;7.60;;;16.90;99.90;;;;;;5112831;28;20170;-76
2022/04/30 10:38:34;;;;;;;11.00;7.30;;;16.80;99.90;;;;;;5113357;28;20202;-73
2022/04/30 10:41:02;;;;;;;9.67;6.80;;;16.60;99.90;;;;;;5112433;28;20175;-75
2022/04/30 10:43:34;;;;;;;12.63;8.93;;;16.60;99.90;;;;;;5112834;28;20254;-73
2022/04/30 10:46:02;;;;;;;7.57;6.83;;;16.60;99.90;;;;;;5113622;28;20160;-73
2022/04/30 10:48:28;;;;;;;8.10;7.00;;;16.50;99.90;;;;;;5116278;28;20248;-73
2022/04/30 10:51:11;;;;;;;7.37;6.60;;;16.40;99.90;;;;;;5116616;28;20611;-74
2022/04/30 10:53:42;;;;;;;7.17;6.63;;;16.50;99.90;;;;;;5116982;28;20167;-74
2022/04/30 10:56:09;;;;;;;8.20;7.47;;;16.60;99.90;;;;;;5115500;28;20198;-74
2022/04/30 10:58:41;;;;;;;8.37;6.70;;;16.80;99.90;;;;;;5115856;28;20297;-72
2022/04/30 11:01:15;;;;;;;7.77;7.07;;;16.70;99.90;;;;;;5117058;28;20177;-74
2022/04/30 11:03:42;;;;;;;7.47;6.67;;;16.40;99.90;;;;;;5116117;28;20189;-72
2022/04/30 11:06:29;;;;;;;10.83;8.67;;;16.60;99.90;;;;;;5116106;28;20186;-72
2022/04/30 11:09:03;;;;;;;9.03;7.47;;;16.80;99.90;;;;;;5115900;28;20676;-73
2022/04/30 11:11:29;;;;;;;8.77;7.80;;;16.30;99.90;;;;;;5116228;28;20175;-72
2022/04/30 11:14:16;;;;;;;9.20;7.17;;;16.20;99.90;;;;;;5116625;28;20171;-72
2022/04/30 11:16:49;;;;;;;7.50;6.80;;;16.00;99.90;;;;;;5115816;28;20175;-72
2022/04/30 11:19:20;;;;;;;7.60;6.83;;;16.00;99.90;;;;;;5116467;28;20250;-72
2022/04/30 11:21:55;;;;;;;7.37;6.67;;;16.20;99.90;;;;;;5116134;28;20163;-72
2022/04/30 11:24:31;;;;;;;7.23;6.67;;;16.50;99.90;;;;;;5115018;28;20171;-73
2022/04/30 11:27:05;;;;;;;8.87;7.00;;;15.70;99.90;;;;;;5116012;28;20259;-73
2022/04/30 11:29:48;;;;;;;8.40;7.53;;;16.50;99.90;;;;;;5116379;28;20202;-73
2022/04/30 11:32:21;;;;;;;10.70;7.97;;;16.90;99.90;;;;;;5115180;28;20708;-73
2022/04/30 11:34:46;;;;;;;9.87;7.97;;;17.20;99.90;;;;;;5115507;28;20183;-73
2022/04/30 11:37:12;;;;;;;7.67;6.83;;;17.20;99.90;;;;;;5114986;28;20636;-73
2022/04/30 11:39:38;;;;;;;8.80;7.90;;;17.20;99.90;;;;;;5115101;28;20167;-74
2022/04/30 11:42:03;;;;;;;10.60;7.30;;;17.10;99.90;;;;;;5115234;28;20655;-73
2022/04/30 11:44:29;;;;;;;7.07;6.43;;;16.90;99.90;;;;;;5115782;28;20261;-73
2022/04/30 11:46:55;;;;;;;6.70;6.17;;;17.30;99.90;;;;;;5115878;28;20630;-73
2022/04/30 11:49:23;;;;;;;7.13;6.40;;;17.30;99.90;;;;;;5115347;28;20240;-73
2022/04/30 11:51:50;;;;;;;8.97;6.60;;;16.70;99.90;;;;;;5115258;28;20231;-73
2022/04/30 11:54:18;;;;;;;7.23;6.50;;;16.50;99.90;;;;;;5115145;28;20185;-73
2022/04/30 11:56:45;;;;;;;7.70;7.00;;;15.80;99.90;;;;;;5114848;28;20246;-73
2022/04/30 11:59:11;;;;;;;7.50;6.53;;;15.30;99.90;;;;;;5114593;28;20175;-74
2022/04/30 12:01:42;;;;;;;10.27;7.23;;;15.70;99.90;;;;;;5115698;28;20156;-74
2022/04/30 12:04:14;;;;;;;7.60;6.80;;;16.40;99.90;;;;;;5115450;28;20692;-76
2022/04/30 12:06:43;;;;;;;10.90;7.33;;;16.60;99.90;;;;;;5114559;28;20179;-73
2022/04/30 12:09:20;;;;;;;9.50;6.93;;;15.90;99.90;;;;;;5115265;28;20279;-74
2022/04/30 12:11:51;;;;;;;8.90;8.00;;;16.30;99.90;;;;;;5115561;28;20622;-74
2022/04/30 12:14:17;;;;;;;8.67;7.87;;;17.20;99.90;;;;;;5114629;28;20171;-73
2022/04/30 12:16:45;;;;;;;9.13;7.47;;;17.70;99.90;;;;;;5114978;28;20172;-72
2022/04/30 12:25:00;;;;;;;13.03;11.03;;;17.50;99.90;;;;;;5114585;28;20170;-74
2022/04/30 12:27:28;;;;;;;10.70;7.20;;;17.50;99.90;;;;;;5114737;28;20171;-72
2022/04/30 12:30:09;;;;;;;8.33;7.50;;;17.50;99.90;;;;;;5114568;28;20297;-74
2022/04/30 12:32:47;;;;;;;8.00;7.20;;;17.80;99.90;;;;;;5114582;28;20201;-72
2022/04/30 12:35:14;;;;;;;8.47;7.63;;;18.40;99.90;;;;;;5114327;28;20182;-73
2022/04/30 12:37:40;;;;;;;8.20;7.50;;;18.10;99.90;;;;;;5113575;28;20176;-73
2022/04/30 12:40:06;;;;;;;7.27;6.57;;;18.00;99.90;;;;;;5113649;28;20642;-72
2022/04/30 12:42:32;;;;;;;7.20;6.50;;;17.60;99.90;;;;;;5115033;28;20691;-73
2022/04/30 12:44:58;;;;;;;5.97;5.43;;;17.90;99.90;;;;;;5114101;28;20175;-74
2022/04/30 12:47:23;;;;;;;8.90;5.60;;;17.80;99.90;;;;;;5114494;28;20164;-74
2022/04/30 12:49:49;;;;;;;6.10;5.30;;;17.80;99.90;;;;;;5113708;28;20706;-73
2022/04/30 12:52:15;;;;;;;7.87;5.67;;;17.70;99.90;;;;;;5113419;28;20642;-74
2022/04/30 12:54:41;;;;;;;5.93;4.90;;;17.60;99.90;;;;;;5114491;28;20175;-72
2022/04/30 12:57:07;;;;;;;5.63;5.20;;;17.60;99.90;;;;;;5113582;28;20219;-74
2022/04/30 12:59:37;;;;;;;6.47;5.43;;;17.60;99.90;;;;;;5112689;28;20175;-73
2022/04/30 13:02:07;;;;;;;7.53;6.47;;;18.00;99.90;;;;;;5113131;28;20243;-74
2022/04/30 13:04:33;;;;;;;5.60;5.20;;;18.10;99.90;;;;;;5114069;28;21074;-74
2022/04/30 13:06:59;;;;;;;6.47;5.47;;;18.20;99.90;;;;;;5113012;28;20182;-73
2022/04/30 13:14:53;;;;;;;6.90;6.30;;;17.90;99.90;;;;;;5114545;28;20178;-73
2022/04/30 13:17:19;;;;;;;7.07;6.50;;;17.60;99.90;;;;;;5113102;28;20164;-73
2022/04/30 13:19:45;;;;;;;8.43;6.10;;;17.30;99.90;;;;;;5113741;28;20242;-73
2022/04/30 13:22:10;;;;;;;7.97;6.20;;;17.00;99.90;;;;;;5112874;28;20630;-73
2022/04/30 13:24:36;;;;;;;7.70;5.83;;;16.90;99.90;;;;;;5113408;28;20249;-73
2022/04/30 13:27:02;;;;;;;7.33;5.63;;;16.60;99.90;;;;;;5113505;28;20190;-74
2022/04/30 13:29:27;;;;;;;7.27;5.43;;;16.70;99.90;;;;;;5095687;28;20211;-73
2022/04/30 13:31:53;;;;;;;7.47;5.87;;;16.80;99.90;;;;;;5113612;28;20191;-72
2022/04/30 13:34:21;;;;;;;6.27;5.67;;;16.80;99.90;;;;;;5113325;28;20167;-73
2022/04/30 13:36:47;;;;;;;8.43;6.10;;;17.10;99.90;;;;;;5113314;28;20163;-72
2022/04/30 13:39:13;;;;;;;6.87;6.13;;;17.20;99.90;;;;;;5113930;28;20171;-73
2022/04/30 13:41:38;;;;;;;6.57;5.97;;;17.00;99.90;;;;;;5112944;28;20533;-73